sensor_id;sensor_type;location;lat;lon;timestamp;P1;durP1;ratioP1;P2;durP2;ratioP2
5823;SDS011;2938;52.254;12.988;2023-05-19T00:01:50;7.63;;;3.50;;
5823;SDS011;2938;52.254;12.988;2023-05-19T00:04:17;9.50;;;3.53;;
5823;SDS011;2938;52.254;12.988;2023-05-19T00:06:44;11.07;;;3.88;;
5823;SDS011;2938;52.254;12.988;2023-05-19T00:09:12;11.98;;;3.22;;
5823;SDS011;2938;52.254;12.988;2023-05-19T00:11:41;7.53;;;3.25;;
5823;SDS011;2938;52.254;12.988;2023-05-19T00:14:08;8.32;;;3.63;;
5823;SDS011;2938;52.254;12.988;2023-05-19T00:16:34;10.80;;;3.40;;
5823;SDS011;2938;52.254;12.988;2023-05-19T00:19:00;14.65;;;4.03;;
5823;SDS011;2938;52.254;12.988;2023-05-19T00:21:27;14.38;;;3.97;;
5823;SDS011;2938;52.254;12.988;2023-05-19T00:23:53;6.20;;;2.75;;
5823;SDS011;2938;52.254;12.988;2023-05-19T00:26:19;8.57;;;3.67;;
5823;SDS011;2938;52.254;12.988;2023-05-19T00:28:46;9.70;;;3.30;;
5823;SDS011;2938;52.254;12.988;2023-05-19T00:31:12;7.50;;;3.17;;
5823;SDS011;2938;52.254;12.988;2023-05-19T00:33:37;8.52;;;3.75;;
5823;SDS011;2938;52.254;12.988;2023-05-19T00:36:03;5.78;;;2.90;;
5823;SDS011;2938;52.254;12.988;2023-05-19T00:38:29;6.95;;;2.58;;
5823;SDS011;2938;52.254;12.988;2023-05-19T00:40:58;10.52;;;3.50;;
5823;SDS011;2938;52.254;12.988;2023-05-19T00:43:24;17.50;;;3.22;;
5823;SDS011;2938;52.254;12.988;2023-05-19T00:45:50;6.70;;;3.88;;
5823;SDS011;2938;52.254;12.988;2023-05-19T00:48:17;10.13;;;5.22;;
5823;SDS011;2938;52.254;12.988;2023-05-19T00:50:43;8.40;;;3.47;;
5823;SDS011;2938;52.254;12.988;2023-05-19T00:53:09;7.30;;;4.30;;
5823;SDS011;2938;52.254;12.988;2023-05-19T00:55:36;10.10;;;3.60;;
5823;SDS011;2938;52.254;12.988;2023-05-19T00:58:03;10.55;;;3.55;;
5823;SDS011;2938;52.254;12.988;2023-05-19T01:00:29;9.15;;;3.78;;
5823;SDS011;2938;52.254;12.988;2023-05-19T01:02:54;7.30;;;3.10;;
5823;SDS011;2938;52.254;12.988;2023-05-19T01:05:20;8.98;;;3.30;;
5823;SDS011;2938;52.254;12.988;2023-05-19T01:07:49;12.48;;;4.78;;
5823;SDS011;2938;52.254;12.988;2023-05-19T01:10:20;13.20;;;4.15;;
5823;SDS011;2938;52.254;12.988;2023-05-19T01:12:45;14.68;;;4.10;;
5823;SDS011;2938;52.254;12.988;2023-05-19T01:15:11;12.00;;;4.70;;
5823;SDS011;2938;52.254;12.988;2023-05-19T01:17:42;6.47;;;3.60;;
5823;SDS011;2938;52.254;12.988;2023-05-19T01:20:21;13.50;;;3.50;;
5823;SDS011;2938;52.254;12.988;2023-05-19T01:22:59;9.50;;;3.17;;
5823;SDS011;2938;52.254;12.988;2023-05-19T01:30:54;18.00;;;3.88;;
5823;SDS011;2938;52.254;12.988;2023-05-19T01:33:21;6.38;;;3.60;;
5823;SDS011;2938;52.254;12.988;2023-05-19T01:35:50;8.70;;;3.55;;
5823;SDS011;2938;52.254;12.988;2023-05-19T01:38:17;10.23;;;3.78;;
5823;SDS011;2938;52.254;12.988;2023-05-19T01:40:43;7.13;;;3.47;;
5823;SDS011;2938;52.254;12.988;2023-05-19T01:43:13;13.30;;;5.25;;
5823;SDS011;2938;52.254;12.988;2023-05-19T01:45:41;9.50;;;3.58;;
5823;SDS011;2938;52.254;12.988;2023-05-19T01:48:08;5.70;;;3.67;;
5823;SDS011;2938;52.254;12.988;2023-05-19T01:50:34;7.65;;;4.05;;
5823;SDS011;2938;52.254;12.988;2023-05-19T01:53:00;5.22;;;3.50;;
5823;SDS011;2938;52.254;12.988;2023-05-19T01:55:25;11.00;;;4.53;;
5823;SDS011;2938;52.254;12.988;2023-05-19T02:00:51;9.38;;;4.97;;
5823;SDS011;2938;52.254;12.988;2023-05-19T02:03:25;8.27;;;3.50;;
5823;SDS011;2938;52.254;12.988;2023-05-19T02:06:11;11.68;;;3.60;;
5823;SDS011;2938;52.254;12.988;2023-05-19T02:08:42;10.85;;;4.13;;
5823;SDS011;2938;52.254;12.988;2023-05-19T02:11:18;16.30;;;5.50;;
5823;SDS011;2938;52.254;12.988;2023-05-19T02:13:55;10.05;;;4.13;;
5823;SDS011;2938;52.254;12.988;2023-05-19T02:16:24;11.90;;;4.70;;
5823;SDS011;2938;52.254;12.988;2023-05-19T02:18:52;7.57;;;4.72;;
5823;SDS011;2938;52.254;12.988;2023-05-19T02:21:18;11.70;;;4.63;;
5823;SDS011;2938;52.254;12.988;2023-05-19T02:23:43;7.75;;;4.82;;
5823;SDS011;2938;52.254;12.988;2023-05-19T02:26:12;9.00;;;5.65;;
5823;SDS011;2938;52.254;12.988;2023-05-19T02:28:37;11.15;;;5.75;;
5823;SDS011;2938;52.254;12.988;2023-05-19T02:31:03;17.58;;;6.20;;
5823;SDS011;2938;52.254;12.988;2023-05-19T02:33:35;8.52;;;4.80;;
5823;SDS011;2938;52.254;12.988;2023-05-19T02:36:01;10.25;;;4.65;;
5823;SDS011;2938;52.254;12.988;2023-05-19T02:38:27;10.30;;;4.20;;
5823;SDS011;2938;52.254;12.988;2023-05-19T02:40:52;6.30;;;4.22;;
5823;SDS011;2938;52.254;12.988;2023-05-19T02:43:18;15.85;;;4.70;;
5823;SDS011;2938;52.254;12.988;2023-05-19T02:45:45;8.73;;;3.50;;
5823;SDS011;2938;52.254;12.988;2023-05-19T02:48:10;12.80;;;5.38;;
5823;SDS011;2938;52.254;12.988;2023-05-19T02:50:36;11.50;;;4.55;;
5823;SDS011;2938;52.254;12.988;2023-05-19T02:53:02;11.15;;;4.25;;
5823;SDS011;2938;52.254;12.988;2023-05-19T02:55:29;14.13;;;3.78;;
5823;SDS011;2938;52.254;12.988;2023-05-19T02:57:55;5.88;;;4.22;;
5823;SDS011;2938;52.254;12.988;2023-05-19T03:00:22;11.63;;;5.15;;
5823;SDS011;2938;52.254;12.988;2023-05-19T03:02:47;3.70;;;3.20;;
5823;SDS011;2938;52.254;12.988;2023-05-19T03:05:13;13.40;;;4.18;;
5823;SDS011;2938;52.254;12.988;2023-05-19T03:07:38;7.28;;;3.88;;
5823;SDS011;2938;52.254;12.988;2023-05-19T03:10:04;9.88;;;4.30;;
5823;SDS011;2938;52.254;12.988;2023-05-19T03:12:30;7.78;;;3.65;;
5823;SDS011;2938;52.254;12.988;2023-05-19T03:14:57;10.50;;;3.65;;
5823;SDS011;2938;52.254;12.988;2023-05-19T03:17:23;7.80;;;4.15;;
5823;SDS011;2938;52.254;12.988;2023-05-19T03:19:48;11.60;;;4.47;;
5823;SDS011;2938;52.254;12.988;2023-05-19T03:22:15;11.48;;;4.03;;
5823;SDS011;2938;52.254;12.988;2023-05-19T03:24:40;15.57;;;5.25;;
5823;SDS011;2938;52.254;12.988;2023-05-19T03:27:06;11.88;;;4.20;;
5823;SDS011;2938;52.254;12.988;2023-05-19T03:29:33;10.52;;;4.22;;
5823;SDS011;2938;52.254;12.988;2023-05-19T03:31:59;9.77;;;4.25;;
5823;SDS011;2938;52.254;12.988;2023-05-19T03:34:25;10.25;;;3.47;;
5823;SDS011;2938;52.254;12.988;2023-05-19T03:36:51;14.73;;;3.65;;
5823;SDS011;2938;52.254;12.988;2023-05-19T03:39:17;7.65;;;3.42;;
5823;SDS011;2938;52.254;12.988;2023-05-19T03:41:42;8.20;;;4.18;;
5823;SDS011;2938;52.254;12.988;2023-05-19T03:44:07;10.38;;;3.50;;
5823;SDS011;2938;52.254;12.988;2023-05-19T03:46:33;18.77;;;3.45;;
5823;SDS011;2938;52.254;12.988;2023-05-19T03:48:58;8.52;;;3.30;;
5823;SDS011;2938;52.254;12.988;2023-05-19T03:51:23;9.80;;;3.25;;
5823;SDS011;2938;52.254;12.988;2023-05-19T03:53:49;16.50;;;3.95;;
5823;SDS011;2938;52.254;12.988;2023-05-19T03:56:14;8.65;;;3.65;;
5823;SDS011;2938;52.254;12.988;2023-05-19T03:58:42;10.35;;;3.38;;
5823;SDS011;2938;52.254;12.988;2023-05-19T04:01:09;7.43;;;3.50;;
5823;SDS011;2938;52.254;12.988;2023-05-19T04:03:35;14.75;;;4.15;;
5823;SDS011;2938;52.254;12.988;2023-05-19T04:06:00;12.32;;;4.32;;
5823;SDS011;2938;52.254;12.988;2023-05-19T04:08:26;10.35;;;3.30;;
5823;SDS011;2938;52.254;12.988;2023-05-19T04:10:51;10.85;;;3.15;;
5823;SDS011;2938;52.254;12.988;2023-05-19T04:13:17;23.00;;;4.15;;
5823;SDS011;2938;52.254;12.988;2023-05-19T04:15:42;28.40;;;5.75;;
5823;SDS011;2938;52.254;12.988;2023-05-19T04:18:07;10.32;;;3.90;;
5823;SDS011;2938;52.254;12.988;2023-05-19T04:20:33;8.32;;;4.18;;
5823;SDS011;2938;52.254;12.988;2023-05-19T04:22:58;13.48;;;3.50;;
5823;SDS011;2938;52.254;12.988;2023-05-19T04:25:24;16.30;;;4.47;;
5823;SDS011;2938;52.254;12.988;2023-05-19T04:27:49;11.10;;;3.47;;
5823;SDS011;2938;52.254;12.988;2023-05-19T04:30:16;9.10;;;3.22;;
5823;SDS011;2938;52.254;12.988;2023-05-19T04:32:46;8.05;;;3.85;;
5823;SDS011;2938;52.254;12.988;2023-05-19T04:35:14;4.82;;;2.95;;
5823;SDS011;2938;52.254;12.988;2023-05-19T04:37:41;10.15;;;3.80;;
5823;SDS011;2938;52.254;12.988;2023-05-19T04:40:09;15.25;;;4.82;;
5823;SDS011;2938;52.254;12.988;2023-05-19T04:42:36;9.35;;;4.55;;
5823;SDS011;2938;52.254;12.988;2023-05-19T04:45:05;10.43;;;3.85;;
5823;SDS011;2938;52.254;12.988;2023-05-19T04:47:36;8.18;;;4.20;;
5823;SDS011;2938;52.254;12.988;2023-05-19T04:50:03;15.85;;;4.57;;
5823;SDS011;2938;52.254;12.988;2023-05-19T04:52:29;14.32;;;3.58;;
5823;SDS011;2938;52.254;12.988;2023-05-19T04:54:54;8.68;;;3.30;;
5823;SDS011;2938;52.254;12.988;2023-05-19T04:57:20;4.60;;;3.53;;
5823;SDS011;2938;52.254;12.988;2023-05-19T04:59:45;9.02;;;3.67;;
5823;SDS011;2938;52.254;12.988;2023-05-19T05:02:11;9.02;;;2.30;;
5823;SDS011;2938;52.254;12.988;2023-05-19T05:04:36;6.57;;;3.35;;
5823;SDS011;2938;52.254;12.988;2023-05-19T05:07:04;11.90;;;2.70;;
5823;SDS011;2938;52.254;12.988;2023-05-19T05:09:29;21.25;;;4.38;;
5823;SDS011;2938;52.254;12.988;2023-05-19T05:11:55;4.13;;;1.98;;
5823;SDS011;2938;52.254;12.988;2023-05-19T05:14:20;10.45;;;2.92;;
5823;SDS011;2938;52.254;12.988;2023-05-19T05:16:46;9.38;;;2.40;;
5823;SDS011;2938;52.254;12.988;2023-05-19T05:19:13;3.97;;;2.67;;
5823;SDS011;2938;52.254;12.988;2023-05-19T05:21:38;5.72;;;2.40;;
5823;SDS011;2938;52.254;12.988;2023-05-19T05:24:05;4.47;;;2.58;;
5823;SDS011;2938;52.254;12.988;2023-05-19T05:26:32;8.68;;;2.42;;
5823;SDS011;2938;52.254;12.988;2023-05-19T05:28:59;6.10;;;2.50;;
5823;SDS011;2938;52.254;12.988;2023-05-19T05:31:24;6.75;;;2.63;;
5823;SDS011;2938;52.254;12.988;2023-05-19T05:33:51;12.85;;;3.10;;
5823;SDS011;2938;52.254;12.988;2023-05-19T05:36:17;6.32;;;2.40;;
5823;SDS011;2938;52.254;12.988;2023-05-19T05:38:42;6.35;;;2.85;;
5823;SDS011;2938;52.254;12.988;2023-05-19T05:41:07;3.63;;;2.38;;
5823;SDS011;2938;52.254;12.988;2023-05-19T05:43:33;6.38;;;2.88;;
5823;SDS011;2938;52.254;12.988;2023-05-19T05:46:01;11.52;;;3.05;;
5823;SDS011;2938;52.254;12.988;2023-05-19T05:48:27;13.27;;;3.20;;
5823;SDS011;2938;52.254;12.988;2023-05-19T05:50:53;10.88;;;3.65;;
5823;SDS011;2938;52.254;12.988;2023-05-19T05:53:20;6.93;;;2.58;;
5823;SDS011;2938;52.254;12.988;2023-05-19T05:55:47;4.65;;;2.75;;
5823;SDS011;2938;52.254;12.988;2023-05-19T05:58:13;10.90;;;3.50;;
5823;SDS011;2938;52.254;12.988;2023-05-19T06:00:39;5.28;;;2.83;;
5823;SDS011;2938;52.254;12.988;2023-05-19T06:03:09;5.95;;;3.33;;
5823;SDS011;2938;52.254;12.988;2023-05-19T06:05:35;4.70;;;2.60;;
5823;SDS011;2938;52.254;12.988;2023-05-19T06:08:01;9.68;;;2.90;;
5823;SDS011;2938;52.254;12.988;2023-05-19T06:10:27;11.93;;;3.80;;
5823;SDS011;2938;52.254;12.988;2023-05-19T06:12:52;11.55;;;3.05;;
5823;SDS011;2938;52.254;12.988;2023-05-19T06:15:21;6.20;;;2.90;;
5823;SDS011;2938;52.254;12.988;2023-05-19T06:17:46;6.25;;;3.13;;
5823;SDS011;2938;52.254;12.988;2023-05-19T06:20:12;5.20;;;2.33;;
5823;SDS011;2938;52.254;12.988;2023-05-19T06:22:37;4.70;;;2.50;;
5823;SDS011;2938;52.254;12.988;2023-05-19T06:25:03;5.45;;;3.00;;
5823;SDS011;2938;52.254;12.988;2023-05-19T06:27:30;9.18;;;3.10;;
5823;SDS011;2938;52.254;12.988;2023-05-19T06:29:55;10.50;;;3.47;;
5823;SDS011;2938;52.254;12.988;2023-05-19T06:32:23;7.05;;;3.10;;
5823;SDS011;2938;52.254;12.988;2023-05-19T06:34:49;8.52;;;3.28;;
5823;SDS011;2938;52.254;12.988;2023-05-19T06:37:21;4.95;;;2.88;;
5823;SDS011;2938;52.254;12.988;2023-05-19T06:39:53;6.65;;;3.22;;
5823;SDS011;2938;52.254;12.988;2023-05-19T06:42:19;6.35;;;3.35;;
5823;SDS011;2938;52.254;12.988;2023-05-19T06:44:47;5.50;;;2.60;;
5823;SDS011;2938;52.254;12.988;2023-05-19T06:47:13;9.27;;;4.03;;
5823;SDS011;2938;52.254;12.988;2023-05-19T06:49:39;5.53;;;3.08;;
5823;SDS011;2938;52.254;12.988;2023-05-19T06:52:06;6.55;;;3.50;;
5823;SDS011;2938;52.254;12.988;2023-05-19T06:54:33;9.00;;;3.20;;
5823;SDS011;2938;52.254;12.988;2023-05-19T06:57:03;4.00;;;2.88;;
5823;SDS011;2938;52.254;12.988;2023-05-19T06:59:29;9.10;;;2.78;;
5823;SDS011;2938;52.254;12.988;2023-05-19T07:01:56;6.55;;;3.42;;
5823;SDS011;2938;52.254;12.988;2023-05-19T07:04:21;6.78;;;3.55;;
5823;SDS011;2938;52.254;12.988;2023-05-19T07:06:48;9.65;;;2.58;;
5823;SDS011;2938;52.254;12.988;2023-05-19T07:09:15;9.05;;;3.10;;
5823;SDS011;2938;52.254;12.988;2023-05-19T07:11:41;8.18;;;3.65;;
5823;SDS011;2938;52.254;12.988;2023-05-19T07:14:07;7.15;;;4.28;;
5823;SDS011;2938;52.254;12.988;2023-05-19T07:16:32;7.13;;;3.60;;
5823;SDS011;2938;52.254;12.988;2023-05-19T07:18:58;7.93;;;3.25;;
5823;SDS011;2938;52.254;12.988;2023-05-19T07:21:23;10.25;;;4.13;;
5823;SDS011;2938;52.254;12.988;2023-05-19T07:23:49;7.68;;;3.53;;
5823;SDS011;2938;52.254;12.988;2023-05-19T07:26:14;7.75;;;3.17;;
5823;SDS011;2938;52.254;12.988;2023-05-19T07:28:39;7.40;;;3.20;;
5823;SDS011;2938;52.254;12.988;2023-05-19T07:31:06;6.25;;;3.22;;
5823;SDS011;2938;52.254;12.988;2023-05-19T07:33:31;10.63;;;3.33;;
5823;SDS011;2938;52.254;12.988;2023-05-19T07:35:57;4.63;;;2.85;;
5823;SDS011;2938;52.254;12.988;2023-05-19T07:38:22;6.78;;;3.47;;
5823;SDS011;2938;52.254;12.988;2023-05-19T07:40:47;5.80;;;3.30;;
5823;SDS011;2938;52.254;12.988;2023-05-19T07:43:12;8.13;;;3.90;;
5823;SDS011;2938;52.254;12.988;2023-05-19T07:45:38;6.57;;;3.57;;
5823;SDS011;2938;52.254;12.988;2023-05-19T07:48:03;6.60;;;3.00;;
5823;SDS011;2938;52.254;12.988;2023-05-19T07:50:28;9.20;;;3.83;;
5823;SDS011;2938;52.254;12.988;2023-05-19T07:52:54;11.07;;;4.05;;
5823;SDS011;2938;52.254;12.988;2023-05-19T07:55:20;10.30;;;3.40;;
5823;SDS011;2938;52.254;12.988;2023-05-19T07:57:47;6.28;;;2.42;;
5823;SDS011;2938;52.254;12.988;2023-05-19T08:00:13;14.60;;;3.70;;
5823;SDS011;2938;52.254;12.988;2023-05-19T08:02:39;4.43;;;2.92;;
5823;SDS011;2938;52.254;12.988;2023-05-19T08:05:05;5.28;;;3.30;;
5823;SDS011;2938;52.254;12.988;2023-05-19T08:07:31;5.25;;;3.53;;
5823;SDS011;2938;52.254;12.988;2023-05-19T08:09:56;9.55;;;3.88;;
5823;SDS011;2938;52.254;12.988;2023-05-19T08:12:22;6.15;;;3.55;;
5823;SDS011;2938;52.254;12.988;2023-05-19T08:14:47;6.72;;;2.92;;
5823;SDS011;2938;52.254;12.988;2023-05-19T08:17:12;7.78;;;3.25;;
5823;SDS011;2938;52.254;12.988;2023-05-19T08:19:38;4.28;;;3.25;;
5823;SDS011;2938;52.254;12.988;2023-05-19T08:22:03;6.55;;;3.35;;
5823;SDS011;2938;52.254;12.988;2023-05-19T08:24:28;6.47;;;3.40;;
5823;SDS011;2938;52.254;12.988;2023-05-19T08:26:54;5.93;;;2.70;;
5823;SDS011;2938;52.254;12.988;2023-05-19T08:29:19;9.95;;;3.47;;
5823;SDS011;2938;52.254;12.988;2023-05-19T08:31:45;8.93;;;3.47;;
5823;SDS011;2938;52.254;12.988;2023-05-19T08:34:10;8.27;;;2.90;;
5823;SDS011;2938;52.254;12.988;2023-05-19T08:36:35;4.90;;;2.88;;
5823;SDS011;2938;52.254;12.988;2023-05-19T08:39:01;5.13;;;3.00;;
5823;SDS011;2938;52.254;12.988;2023-05-19T08:41:26;4.43;;;3.53;;
5823;SDS011;2938;52.254;12.988;2023-05-19T08:43:51;6.22;;;2.92;;
5823;SDS011;2938;52.254;12.988;2023-05-19T08:46:17;4.38;;;2.72;;
5823;SDS011;2938;52.254;12.988;2023-05-19T08:48:43;10.30;;;3.10;;
5823;SDS011;2938;52.254;12.988;2023-05-19T08:53:37;7.15;;;2.50;;
5823;SDS011;2938;52.254;12.988;2023-05-19T08:56:10;10.75;;;2.88;;
5823;SDS011;2938;52.254;12.988;2023-05-19T08:58:37;8.35;;;2.35;;
5823;SDS011;2938;52.254;12.988;2023-05-19T09:01:03;14.35;;;4.13;;
5823;SDS011;2938;52.254;12.988;2023-05-19T09:03:29;13.35;;;2.60;;
5823;SDS011;2938;52.254;12.988;2023-05-19T09:05:56;4.20;;;3.22;;
5823;SDS011;2938;52.254;12.988;2023-05-19T09:08:22;5.65;;;2.63;;
5823;SDS011;2938;52.254;12.988;2023-05-19T09:10:47;5.00;;;2.30;;
5823;SDS011;2938;52.254;12.988;2023-05-19T09:13:12;10.02;;;3.53;;
5823;SDS011;2938;52.254;12.988;2023-05-19T09:15:38;3.88;;;2.33;;
5823;SDS011;2938;52.254;12.988;2023-05-19T09:18:11;8.50;;;3.13;;
5823;SDS011;2938;52.254;12.988;2023-05-19T09:20:40;7.35;;;2.95;;
5823;SDS011;2938;52.254;12.988;2023-05-19T09:23:06;10.40;;;2.38;;
5823;SDS011;2938;52.254;12.988;2023-05-19T09:25:32;2.03;;;1.58;;
5823;SDS011;2938;52.254;12.988;2023-05-19T09:27:57;4.53;;;2.17;;
5823;SDS011;2938;52.254;12.988;2023-05-19T09:30:23;4.15;;;2.10;;
5823;SDS011;2938;52.254;12.988;2023-05-19T09:32:49;4.03;;;1.88;;
5823;SDS011;2938;52.254;12.988;2023-05-19T09:35:15;2.97;;;1.90;;
5823;SDS011;2938;52.254;12.988;2023-05-19T09:37:45;3.05;;;2.08;;
5823;SDS011;2938;52.254;12.988;2023-05-19T09:40:12;5.65;;;1.63;;
5823;SDS011;2938;52.254;12.988;2023-05-19T09:42:38;3.83;;;2.20;;
5823;SDS011;2938;52.254;12.988;2023-05-19T09:45:05;6.18;;;1.90;;
5823;SDS011;2938;52.254;12.988;2023-05-19T09:47:38;4.20;;;1.70;;
5823;SDS011;2938;52.254;12.988;2023-05-19T09:50:05;11.25;;;2.20;;
5823;SDS011;2938;52.254;12.988;2023-05-19T09:52:36;1.65;;;1.25;;
5823;SDS011;2938;52.254;12.988;2023-05-19T09:55:02;4.38;;;2.30;;
5823;SDS011;2938;52.254;12.988;2023-05-19T09:57:32;3.30;;;1.38;;
5823;SDS011;2938;52.254;12.988;2023-05-19T10:00:01;7.88;;;2.05;;
5823;SDS011;2938;52.254;12.988;2023-05-19T10:02:39;1.92;;;1.63;;
5823;SDS011;2938;52.254;12.988;2023-05-19T10:05:07;7.43;;;2.10;;
5823;SDS011;2938;52.254;12.988;2023-05-19T10:07:35;9.07;;;1.95;;
5823;SDS011;2938;52.254;12.988;2023-05-19T10:10:01;2.35;;;1.55;;
5823;SDS011;2938;52.254;12.988;2023-05-19T10:12:27;5.00;;;1.50;;
5823;SDS011;2938;52.254;12.988;2023-05-19T10:14:53;8.25;;;2.35;;
5823;SDS011;2938;52.254;12.988;2023-05-19T10:17:18;9.90;;;2.20;;
5823;SDS011;2938;52.254;12.988;2023-05-19T10:19:44;5.18;;;1.88;;
5823;SDS011;2938;52.254;12.988;2023-05-19T10:22:09;15.68;;;3.15;;
5823;SDS011;2938;52.254;12.988;2023-05-19T10:24:35;6.38;;;1.52;;
5823;SDS011;2938;52.254;12.988;2023-05-19T10:27:07;5.73;;;2.43;;
5823;SDS011;2938;52.254;12.988;2023-05-19T10:29:36;2.90;;;1.75;;
5823;SDS011;2938;52.254;12.988;2023-05-19T10:32:05;11.73;;;2.08;;
5823;SDS011;2938;52.254;12.988;2023-05-19T10:40:28;3.33;;;1.88;;
5823;SDS011;2938;52.254;12.988;2023-05-19T10:45:55;8.43;;;1.92;;
5823;SDS011;2938;52.254;12.988;2023-05-19T10:48:21;4.65;;;1.65;;
5823;SDS011;2938;52.254;12.988;2023-05-19T10:50:47;20.17;;;2.78;;
5823;SDS011;2938;52.254;12.988;2023-05-19T10:53:13;3.42;;;1.92;;
5823;SDS011;2938;52.254;12.988;2023-05-19T10:55:46;1.75;;;1.55;;
5823;SDS011;2938;52.254;12.988;2023-05-19T11:01:07;6.07;;;1.85;;
5823;SDS011;2938;52.254;12.988;2023-05-19T11:03:47;21.52;;;2.70;;
5823;SDS011;2938;52.254;12.988;2023-05-19T11:06:25;4.13;;;1.45;;
5823;SDS011;2938;52.254;12.988;2023-05-19T11:08:51;4.72;;;1.85;;
5823;SDS011;2938;52.254;12.988;2023-05-19T11:11:18;9.65;;;2.30;;
5823;SDS011;2938;52.254;12.988;2023-05-19T11:13:47;4.18;;;2.40;;
5823;SDS011;2938;52.254;12.988;2023-05-19T11:16:17;8.17;;;2.53;;
5823;SDS011;2938;52.254;12.988;2023-05-19T11:18:46;2.45;;;1.83;;
5823;SDS011;2938;52.254;12.988;2023-05-19T11:21:12;2.67;;;1.73;;
5823;SDS011;2938;52.254;12.988;2023-05-19T11:23:37;3.90;;;2.20;;
5823;SDS011;2938;52.254;12.988;2023-05-19T11:26:05;6.50;;;2.33;;
5823;SDS011;2938;52.254;12.988;2023-05-19T11:28:32;6.43;;;1.73;;
5823;SDS011;2938;52.254;12.988;2023-05-19T11:30:58;2.72;;;2.05;;
5823;SDS011;2938;52.254;12.988;2023-05-19T11:33:25;2.78;;;1.52;;
5823;SDS011;2938;52.254;12.988;2023-05-19T11:35:54;2.58;;;1.77;;
5823;SDS011;2938;52.254;12.988;2023-05-19T11:38:24;3.25;;;2.03;;
5823;SDS011;2938;52.254;12.988;2023-05-19T11:40:53;4.70;;;1.73;;
5823;SDS011;2938;52.254;12.988;2023-05-19T11:43:21;6.70;;;2.10;;
5823;SDS011;2938;52.254;12.988;2023-05-19T11:45:47;11.80;;;3.35;;
5823;SDS011;2938;52.254;12.988;2023-05-19T11:48:12;15.10;;;2.25;;
5823;SDS011;2938;52.254;12.988;2023-05-19T11:50:40;12.30;;;2.70;;
5823;SDS011;2938;52.254;12.988;2023-05-19T11:53:05;3.28;;;1.83;;
5823;SDS011;2938;52.254;12.988;2023-05-19T11:55:31;2.72;;;1.88;;
5823;SDS011;2938;52.254;12.988;2023-05-19T12:00:22;7.10;;;2.17;;
5823;SDS011;2938;52.254;12.988;2023-05-19T12:02:48;4.47;;;1.88;;
5823;SDS011;2938;52.254;12.988;2023-05-19T12:05:21;5.90;;;1.80;;
5823;SDS011;2938;52.254;12.988;2023-05-19T12:07:50;4.45;;;2.53;;
5823;SDS011;2938;52.254;12.988;2023-05-19T12:12:49;5.13;;;1.65;;
5823;SDS011;2938;52.254;12.988;2023-05-19T12:15:17;3.00;;;1.70;;
5823;SDS011;2938;52.254;12.988;2023-05-19T12:17:44;5.93;;;2.28;;
5823;SDS011;2938;52.254;12.988;2023-05-19T12:20:10;2.25;;;1.52;;
5823;SDS011;2938;52.254;12.988;2023-05-19T12:22:36;6.88;;;2.47;;
5823;SDS011;2938;52.254;12.988;2023-05-19T12:25:01;3.92;;;2.92;;
5823;SDS011;2938;52.254;12.988;2023-05-19T12:27:35;2.60;;;1.98;;
5823;SDS011;2938;52.254;12.988;2023-05-19T12:30:09;3.33;;;1.58;;
5823;SDS011;2938;52.254;12.988;2023-05-19T12:32:36;1.88;;;1.70;;
5823;SDS011;2938;52.254;12.988;2023-05-19T12:35:02;3.60;;;1.92;;
5823;SDS011;2938;52.254;12.988;2023-05-19T12:37:29;3.42;;;1.92;;
5823;SDS011;2938;52.254;12.988;2023-05-19T12:39:55;8.10;;;2.80;;
5823;SDS011;2938;52.254;12.988;2023-05-19T12:42:21;6.63;;;3.17;;
5823;SDS011;2938;52.254;12.988;2023-05-19T12:44:48;3.97;;;1.90;;
5823;SDS011;2938;52.254;12.988;2023-05-19T12:47:15;3.13;;;2.08;;
5823;SDS011;2938;52.254;12.988;2023-05-19T12:49:59;5.18;;;2.58;;
5823;SDS011;2938;52.254;12.988;2023-05-19T12:52:28;2.55;;;1.65;;
5823;SDS011;2938;52.254;12.988;2023-05-19T12:55:02;24.25;;;2.65;;
5823;SDS011;2938;52.254;12.988;2023-05-19T12:57:29;4.55;;;2.13;;
5823;SDS011;2938;52.254;12.988;2023-05-19T13:00:04;2.78;;;1.95;;
5823;SDS011;2938;52.254;12.988;2023-05-19T13:02:54;2.47;;;2.10;;
5823;SDS011;2938;52.254;12.988;2023-05-19T13:05:20;4.10;;;2.03;;
5823;SDS011;2938;52.254;12.988;2023-05-19T13:10:40;2.75;;;1.80;;
5823;SDS011;2938;52.254;12.988;2023-05-19T13:13:09;4.15;;;2.22;;
5823;SDS011;2938;52.254;12.988;2023-05-19T13:15:39;3.60;;;2.00;;
5823;SDS011;2938;52.254;12.988;2023-05-19T13:18:06;2.00;;;1.80;;
5823;SDS011;2938;52.254;12.988;2023-05-19T13:20:33;10.27;;;2.30;;
5823;SDS011;2938;52.254;12.988;2023-05-19T13:22:59;7.85;;;2.20;;
5823;SDS011;2938;52.254;12.988;2023-05-19T13:25:31;4.03;;;2.80;;
5823;SDS011;2938;52.254;12.988;2023-05-19T13:27:57;4.63;;;2.08;;
5823;SDS011;2938;52.254;12.988;2023-05-19T13:30:25;3.35;;;2.13;;
5823;SDS011;2938;52.254;12.988;2023-05-19T13:32:51;7.45;;;2.80;;
5823;SDS011;2938;52.254;12.988;2023-05-19T13:35:17;4.43;;;2.15;;
5823;SDS011;2938;52.254;12.988;2023-05-19T13:48:09;2.78;;;1.83;;
5823;SDS011;2938;52.254;12.988;2023-05-19T13:54:13;1.77;;;1.67;;
5823;SDS011;2938;52.254;12.988;2023-05-19T13:56:44;6.15;;;2.45;;
5823;SDS011;2938;52.254;12.988;2023-05-19T13:59:18;2.97;;;1.73;;
5823;SDS011;2938;52.254;12.988;2023-05-19T14:01:51;18.98;;;2.72;;
5823;SDS011;2938;52.254;12.988;2023-05-19T14:04:42;7.28;;;2.22;;
5823;SDS011;2938;52.254;12.988;2023-05-19T14:07:25;6.20;;;1.90;;
5823;SDS011;2938;52.254;12.988;2023-05-19T14:17:21;5.85;;;2.50;;
5823;SDS011;2938;52.254;12.988;2023-05-19T14:19:36;5.15;;;1.83;;
5823;SDS011;2938;52.254;12.988;2023-05-19T14:22:04;7.72;;;2.25;;
5823;SDS011;2938;52.254;12.988;2023-05-19T14:25:05;10.55;;;2.13;;
5823;SDS011;2938;52.254;12.988;2023-05-19T14:27:33;5.47;;;2.08;;
5823;SDS011;2938;52.254;12.988;2023-05-19T14:30:01;11.88;;;2.25;;
5823;SDS011;2938;52.254;12.988;2023-05-19T14:32:27;5.30;;;2.40;;
5823;SDS011;2938;52.254;12.988;2023-05-19T14:34:52;6.07;;;1.98;;
5823;SDS011;2938;52.254;12.988;2023-05-19T14:37:18;7.20;;;2.30;;
5823;SDS011;2938;52.254;12.988;2023-05-19T14:39:43;7.38;;;2.20;;
5823;SDS011;2938;52.254;12.988;2023-05-19T14:42:27;3.40;;;1.90;;
5823;SDS011;2938;52.254;12.988;2023-05-19T14:44:53;9.30;;;4.30;;
5823;SDS011;2938;52.254;12.988;2023-05-19T14:47:22;4.40;;;2.75;;
5823;SDS011;2938;52.254;12.988;2023-05-19T14:49:48;3.28;;;2.72;;
5823;SDS011;2938;52.254;12.988;2023-05-19T14:52:14;4.88;;;2.17;;
5823;SDS011;2938;52.254;12.988;2023-05-19T14:54:40;7.47;;;2.15;;
5823;SDS011;2938;52.254;12.988;2023-05-19T14:57:10;7.32;;;2.53;;
5823;SDS011;2938;52.254;12.988;2023-05-19T14:59:40;5.65;;;2.92;;
5823;SDS011;2938;52.254;12.988;2023-05-19T15:02:05;4.25;;;2.60;;
5823;SDS011;2938;52.254;12.988;2023-05-19T15:04:31;8.70;;;4.38;;
5823;SDS011;2938;52.254;12.988;2023-05-19T15:06:56;10.43;;;6.57;;
5823;SDS011;2938;52.254;12.988;2023-05-19T15:09:22;5.05;;;2.33;;
5823;SDS011;2938;52.254;12.988;2023-05-19T15:11:56;3.88;;;3.13;;
5823;SDS011;2938;52.254;12.988;2023-05-19T15:14:22;7.85;;;2.30;;
5823;SDS011;2938;52.254;12.988;2023-05-19T15:16:51;7.63;;;2.60;;
5823;SDS011;2938;52.254;12.988;2023-05-19T15:19:21;7.35;;;2.22;;
5823;SDS011;2938;52.254;12.988;2023-05-19T15:21:58;2.95;;;2.58;;
5823;SDS011;2938;52.254;12.988;2023-05-19T15:24:53;5.47;;;2.60;;
5823;SDS011;2938;52.254;12.988;2023-05-19T15:27:28;7.28;;;1.98;;
5823;SDS011;2938;52.254;12.988;2023-05-19T15:29:58;4.43;;;3.47;;
5823;SDS011;2938;52.254;12.988;2023-05-19T15:32:27;6.82;;;3.35;;
5823;SDS011;2938;52.254;12.988;2023-05-19T15:34:57;3.85;;;3.33;;
5823;SDS011;2938;52.254;12.988;2023-05-19T15:37:24;4.28;;;2.25;;
5823;SDS011;2938;52.254;12.988;2023-05-19T15:39:51;2.97;;;2.40;;
5823;SDS011;2938;52.254;12.988;2023-05-19T15:42:19;7.75;;;2.88;;
5823;SDS011;2938;52.254;12.988;2023-05-19T15:44:46;6.28;;;2.67;;
5823;SDS011;2938;52.254;12.988;2023-05-19T15:47:12;3.63;;;2.70;;
5823;SDS011;2938;52.254;12.988;2023-05-19T15:49:38;10.50;;;2.63;;
5823;SDS011;2938;52.254;12.988;2023-05-19T15:52:08;8.57;;;2.83;;